Time;durP1;ratioP1;P1;durP2;ratioP2;P2;SDS_P1;SDS_P2;PMS_P1;PMS_P2;Temp;Humidity;BMP_temperature;BMP_pressure;BME280_temperature;BME280_humidity;BME280_pressure;Samples;Min_cycle;Max_cycle;Signal;HPM_P1;HPM_P2
2022/04/21 00:01:20;;;;;;;2.60;2.20;;;8.70;99.90;;;;;;5227868;28;20070;-76
2022/04/21 00:03:51;;;;;;;2.45;1.95;;;8.70;99.90;;;;;;5228124;28;20028;-76
2022/04/21 00:06:22;;;;;;;2.90;2.00;;;8.70;99.90;;;;;;5227783;28;20102;-74
2022/04/21 00:08:52;;;;;;;2.10;1.90;;;8.60;99.90;;;;;;5227913;28;20059;-76
2022/04/21 00:11:23;;;;;;;3.28;2.53;;;8.70;99.90;;;;;;5228053;28;20025;-76
2022/04/21 00:13:54;;;;;;;5.00;2.95;;;8.60;99.90;;;;;;5227636;28;20035;-75
2022/04/21 00:16:25;;;;;;;4.35;2.70;;;8.80;99.90;;;;;;5226468;28;20021;-76
2022/04/21 00:18:56;;;;;;;4.32;3.75;;;8.80;99.90;;;;;;5227714;28;20044;-74
2022/04/21 00:23:25;;;;;;;2.80;2.42;;;8.80;99.90;;;;;;5227802;28;20096;-75
2022/04/21 00:24:17;;;;;;;;;;;8.90;99.90;;;;;;5227551;28;20029;-75
2022/04/21 00:26:48;;;;;;;2.83;2.47;;;8.90;99.90;;;;;;5227685;28;19912;-76
2022/04/21 00:29:18;;;;;;;3.40;2.55;;;8.80;99.90;;;;;;5226270;28;20361;-74
2022/04/21 00:31:49;;;;;;;3.40;2.53;;;8.50;99.90;;;;;;5227363;28;20029;-74
2022/04/21 00:34:20;;;;;;;4.13;2.65;;;8.50;99.90;;;;;;5227266;28;20167;-76
2022/04/21 00:36:51;;;;;;;3.85;2.38;;;8.40;99.90;;;;;;5227350;28;20071;-76
2022/04/21 00:39:22;;;;;;;3.95;2.90;;;8.50;99.90;;;;;;5227606;28;20028;-76
2022/04/21 00:41:59;;;;;;;2.63;2.40;;;8.60;99.90;;;;;;5227283;28;20029;-75
2022/04/21 00:44:30;;;;;;;2.75;2.30;;;8.60;99.90;;;;;;5227498;28;20032;-74
2022/04/21 00:47:03;;;;;;;10.02;3.50;;;8.70;99.90;;;;;;5227550;28;20025;-74
2022/04/21 00:49:35;;;;;;;3.40;2.88;;;8.70;99.90;;;;;;5227135;28;20043;-74
2022/04/21 00:52:07;;;;;;;3.30;2.95;;;8.50;99.90;;;;;;5227619;28;20116;-74
2022/04/21 00:54:38;;;;;;;3.80;2.60;;;8.50;99.90;;;;;;5226138;28;20334;-74
2022/04/21 00:57:10;;;;;;;3.63;2.63;;;8.60;99.90;;;;;;5225993;28;20040;-74
2022/04/21 00:59:43;;;;;;;3.10;2.80;;;8.40;99.90;;;;;;5227301;28;20445;-74
2022/04/21 01:05:04;;;;;;;3.38;3.03;;;8.20;99.90;;;;;;5226987;28;20044;-74
2022/04/21 01:07:34;;;;;;;2.90;2.53;;;8.10;99.90;;;;;;5226742;28;20163;-74
2022/04/21 01:10:06;;;;;;;3.15;2.85;;;8.20;99.90;;;;;;5225932;28;20458;-74
2022/04/21 01:12:38;;;;;;;4.00;2.90;;;7.90;99.90;;;;;;5227170;28;20028;-74
2022/04/21 01:15:09;;;;;;;3.53;2.88;;;7.80;99.90;;;;;;5225852;28;20095;-74
2022/04/21 01:17:40;;;;;;;3.40;2.60;;;7.80;99.90;;;;;;5225813;28;20079;-74
2022/04/21 01:20:21;;;;;;;3.95;2.55;;;7.60;99.90;;;;;;5227123;28;20021;-74
2022/04/21 01:22:53;;;;;;;3.10;2.80;;;7.70;99.90;;;;;;5225726;28;20029;-74
2022/04/21 01:25:24;;;;;;;4.10;3.08;;;7.60;99.90;;;;;;5227006;28;20033;-74
2022/04/21 01:27:57;;;;;;;3.75;3.10;;;7.40;99.90;;;;;;5226901;28;20025;-74
2022/04/21 01:30:28;;;;;;;4.75;3.03;;;7.60;99.90;;;;;;5227065;28;20060;-74
2022/04/21 01:33:00;;;;;;;4.60;3.65;;;7.40;99.90;;;;;;5227067;28;20061;-74
2022/04/21 01:35:30;;;;;;;3.40;2.88;;;7.40;99.90;;;;;;5229995;28;20039;-74
2022/04/21 01:43:43;;;;;;;4.95;3.70;;;7.80;99.90;;;;;;5230825;28;20170;-74
2022/04/21 01:46:14;;;;;;;5.15;3.40;;;8.10;99.90;;;;;;5229522;28;20025;-74
2022/04/21 01:48:45;;;;;;;4.05;3.60;;;8.10;99.90;;;;;;5230475;28;20388;-75
2022/04/21 01:51:15;;;;;;;5.05;4.10;;;7.90;99.90;;;;;;5230661;28;20021;-75
2022/04/21 01:53:46;;;;;;;6.97;3.33;;;8.00;99.90;;;;;;5230312;28;20182;-75
2022/04/21 01:56:17;;;;;;;3.35;3.00;;;7.90;99.90;;;;;;5229126;28;20469;-74
2022/04/21 01:58:52;;;;;;;5.20;3.53;;;7.90;99.90;;;;;;5230531;28;20044;-75
2022/04/21 02:01:27;;;;;;;5.30;4.00;;;8.00;99.90;;;;;;5229143;28;20021;-75
2022/04/21 02:04:02;;;;;;;3.85;3.42;;;8.00;99.90;;;;;;5230307;28;20468;-75
2022/04/21 02:06:38;;;;;;;5.90;3.15;;;8.00;99.90;;;;;;5229808;28;20045;-75
2022/04/21 02:09:14;;;;;;;3.50;2.90;;;7.70;99.90;;;;;;5230009;28;20041;-75
2022/04/21 02:11:45;;;;;;;4.05;3.30;;;7.60;99.90;;;;;;5230262;28;20029;-74
2022/04/21 02:14:16;;;;;;;4.18;3.75;;;7.80;99.90;;;;;;5229882;28;20427;-74
2022/04/21 02:16:46;;;;;;;3.50;3.20;;;7.70;99.90;;;;;;5230129;28;20029;-75
2022/04/21 02:19:17;;;;;;;5.88;3.60;;;7.60;99.90;;;;;;5230040;28;20025;-75
2022/04/21 02:21:48;;;;;;;3.97;3.25;;;7.70;99.90;;;;;;5228752;28;20053;-74
2022/04/21 02:24:19;;;;;;;3.72;3.10;;;7.40;99.90;;;;;;5228803;28;20028;-74
2022/04/21 02:26:50;;;;;;;3.33;3.03;;;7.40;99.90;;;;;;5230029;28;20078;-75
2022/04/21 02:29:21;;;;;;;3.28;2.97;;;7.30;99.90;;;;;;5229855;28;20117;-75
2022/04/21 02:31:52;;;;;;;4.45;3.55;;;6.90;99.90;;;;;;5228660;28;20381;-74
2022/04/21 02:34:22;;;;;;;5.05;3.40;;;7.00;99.90;;;;;;5229909;28;20028;-75
2022/04/21 02:36:53;;;;;;;3.13;2.78;;;7.20;99.90;;;;;;5228482;28;20354;-76
2022/04/21 02:39:25;;;;;;;4.10;3.22;;;7.30;99.90;;;;;;5229542;28;20360;-76
2022/04/21 02:41:56;;;;;;;4.28;3.65;;;6.80;99.90;;;;;;5228434;28;20501;-74
2022/04/21 02:44:27;;;;;;;4.85;4.00;;;6.40;99.90;;;;;;5229706;28;20464;-74
2022/04/21 02:46:59;;;;;;;5.03;4.38;;;6.30;99.90;;;;;;5228582;28;20421;-74
2022/04/21 02:49:30;;;;;;;4.80;3.67;;;6.70;99.90;;;;;;5228120;28;20373;-74
2022/04/21 02:52:03;;;;;;;4.93;3.97;;;6.90;99.90;;;;;;5228191;28;20027;-74
2022/04/21 02:57:24;;;;;;;4.97;3.92;;;6.90;99.90;;;;;;5229585;28;20051;-74
2022/04/21 02:59:58;;;;;;;4.72;3.80;;;6.50;99.90;;;;;;5229154;28;20623;-75
2022/04/21 03:02:28;;;;;;;4.82;3.72;;;6.70;99.90;;;;;;5229669;28;20025;-75
2022/04/21 03:04:59;;;;;;;3.47;3.17;;;6.70;99.90;;;;;;5228927;28;20041;-74
2022/04/21 03:07:30;;;;;;;6.07;4.18;;;5.90;99.90;;;;;;5229237;28;20021;-77
2022/04/21 03:10:01;;;;;;;4.82;4.22;;;5.80;99.90;;;;;;5227731;28;20110;-74
2022/04/21 03:12:31;;;;;;;5.72;3.95;;;5.90;99.90;;;;;;5227672;28;20021;-73
2022/04/21 03:15:03;;;;;;;5.25;4.07;;;5.90;99.90;;;;;;5228768;28;20088;-74
2022/04/21 03:17:34;;;;;;;5.80;4.72;;;5.50;99.90;;;;;;5229042;28;20025;-74
2022/04/21 03:20:05;;;;;;;5.32;4.05;;;5.60;99.90;;;;;;5228885;28;20021;-74
2022/04/21 03:25:36;;;;;;;5.53;3.70;;;5.80;99.90;;;;;;5191736;28;20041;-74
2022/04/21 03:28:07;;;;;;;4.30;3.80;;;5.70;99.90;;;;;;5228792;28;20480;-76
2022/04/21 03:30:38;;;;;;;7.50;4.18;;;5.40;99.90;;;;;;5228739;28;20437;-74
2022/04/21 03:33:09;;;;;;;4.78;3.90;;;5.60;99.90;;;;;;5228572;28;20013;-74
2022/04/21 03:35:39;;;;;;;4.22;3.83;;;5.70;99.90;;;;;;5228429;28;20036;-74
2022/04/21 03:38:10;;;;;;;5.90;3.45;;;5.80;99.90;;;;;;5228355;28;20025;-74
2022/04/21 03:40:41;;;;;;;4.07;3.65;;;5.50;99.90;;;;;;5228403;28;20029;-73
2022/04/21 03:43:12;;;;;;;5.07;3.83;;;5.50;99.90;;;;;;5228406;28;20049;-74
2022/04/21 03:45:43;;;;;;;4.18;3.45;;;5.50;99.90;;;;;;5228403;28;20108;-74
2022/04/21 03:48:14;;;;;;;4.13;3.60;;;5.70;99.90;;;;;;5228325;28;20097;-74
2022/04/21 03:50:44;;;;;;;5.47;4.20;;;5.40;99.90;;;;;;5228155;28;20029;-73
2022/04/21 03:53:16;;;;;;;4.40;3.50;;;5.50;99.90;;;;;;5228271;28;20029;-75
2022/04/21 03:55:47;;;;;;;5.03;4.13;;;5.50;99.90;;;;;;5228093;28;20376;-76
2022/04/21 03:58:18;;;;;;;4.15;3.30;;;5.50;99.90;;;;;;5228056;28;20025;-74
2022/04/21 04:00:49;;;;;;;4.30;3.50;;;5.40;99.90;;;;;;5228193;28;20029;-78
2022/04/21 04:03:20;;;;;;;6.45;3.83;;;5.40;99.90;;;;;;5226863;28;20025;-75
2022/04/21 04:05:50;;;;;;;4.35;3.70;;;5.70;99.90;;;;;;5226446;28;20128;-73
2022/04/21 04:11:11;;;;;;;4.43;3.83;;;5.80;99.90;;;;;;5227894;28;20511;-74
2022/04/21 04:13:41;;;;;;;5.00;4.00;;;5.80;99.90;;;;;;5227846;28;20021;-73
2022/04/21 04:16:13;;;;;;;4.65;3.65;;;5.90;99.90;;;;;;5227795;28;20552;-73
2022/04/21 04:18:43;;;;;;;4.60;3.50;;;6.20;99.90;;;;;;5226679;28;20043;-73
2022/04/21 04:21:14;;;;;;;5.35;4.15;;;6.30;99.90;;;;;;5227522;28;20598;-74
2022/04/21 04:23:45;;;;;;;4.57;4.00;;;6.30;99.90;;;;;;5227658;28;20356;-76
2022/04/21 04:26:16;;;;;;;7.45;3.80;;;6.40;99.90;;;;;;5227363;28;20380;-76
2022/04/21 04:28:47;;;;;;;5.70;4.45;;;6.30;99.90;;;;;;5227684;28;20453;-76
2022/04/21 04:31:18;;;;;;;6.53;4.15;;;6.70;99.90;;;;;;5227779;28;20079;-75
2022/04/21 04:33:49;;;;;;;7.63;4.45;;;6.40;99.90;;;;;;5226302;28;20025;-75
2022/04/21 04:36:19;;;;;;;5.97;4.47;;;6.60;99.90;;;;;;5226312;28;20025;-76
2022/04/21 04:38:50;;;;;;;8.85;6.20;;;6.90;99.90;;;;;;5227576;28;20025;-76
2022/04/21 04:44:10;;;;;;;24.17;15.07;;;7.00;99.90;;;;;;5227849;28;20079;-74
2022/04/21 04:46:43;;;;;;;24.58;15.23;;;7.30;99.90;;;;;;5227481;28;20025;-74
2022/04/21 04:49:13;;;;;;;23.10;13.65;;;7.30;99.90;;;;;;5226202;28;20033;-76
2022/04/21 04:51:44;;;;;;;18.10;11.68;;;7.50;99.90;;;;;;5227483;28;20095;-74
2022/04/21 04:54:16;;;;;;;16.00;10.05;;;7.70;99.90;;;;;;5227367;28;20033;-76
2022/04/21 04:56:48;;;;;;;14.73;8.93;;;7.80;99.90;;;;;;5226011;28;20472;-76
2022/04/21 04:59:19;;;;;;;8.25;6.18;;;8.00;99.90;;;;;;5227322;28;20422;-76
2022/04/21 05:01:49;;;;;;;8.57;6.15;;;8.10;99.90;;;;;;5239725;28;20013;-74
2022/04/21 05:04:21;;;;;;;9.27;6.32;;;8.30;99.90;;;;;;5248080;28;20047;-77
2022/04/21 05:06:57;;;;;;;9.23;6.90;;;8.60;99.90;;;;;;5247821;28;20049;-77
2022/04/21 05:09:28;;;;;;;12.13;7.78;;;8.40;99.90;;;;;;5249808;28;20037;-74
2022/04/21 05:11:59;;;;;;;12.93;7.43;;;8.50;99.90;;;;;;5251960;28;20023;-74
2022/04/21 05:14:30;;;;;;;11.77;7.78;;;8.80;99.90;;;;;;5250799;28;20079;-74
2022/04/21 05:17:00;;;;;;;12.00;7.65;;;8.70;99.90;;;;;;5252204;28;20023;-74
2022/04/21 05:19:32;;;;;;;12.48;8.00;;;8.90;99.90;;;;;;5250682;28;20040;-77
2022/04/21 05:22:04;;;;;;;11.68;7.75;;;9.30;99.90;;;;;;5251917;28;20016;-74
2022/04/21 05:24:38;;;;;;;9.85;7.43;;;9.30;99.90;;;;;;5251928;28;20040;-74
2022/04/21 05:27:10;;;;;;;12.40;8.55;;;9.40;99.90;;;;;;5251970;28;20024;-74
2022/04/21 05:32:40;;;;;;;5.68;4.10;;;9.70;99.90;;;;;;5252090;28;20024;-74
2022/04/21 05:35:12;;;;;;;6.88;5.50;;;9.40;99.90;;;;;;5251466;28;20036;-74
2022/04/21 05:37:43;;;;;;;7.43;5.15;;;9.70;99.90;;;;;;5251513;28;20097;-73
2022/04/21 05:40:14;;;;;;;7.57;5.65;;;9.60;99.90;;;;;;5251490;28;20040;-74
2022/04/21 05:42:49;;;;;;;7.43;4.40;;;10.30;99.90;;;;;;5251374;28;20099;-77
2022/04/21 05:45:20;;;;;;;3.63;1.80;;;10.20;99.90;;;;;;5251485;28;20463;-74
2022/04/21 05:47:52;;;;;;;1.90;1.60;;;9.90;99.90;;;;;;5240660;28;20035;-75
2022/04/21 05:50:23;;;;;;;2.47;1.98;;;10.20;99.90;;;;;;5239268;28;22050;-77
2022/04/21 05:52:57;;;;;;;0.90;0.73;;;10.70;99.90;;;;;;5242894;28;20028;-77
2022/04/21 05:55:29;;;;;;;2.60;0.80;;;11.00;99.90;;;;;;5230508;28;20075;-76
2022/04/21 05:57:59;;;;;;;1.40;1.30;;;10.20;99.90;;;;;;5230388;28;20017;-74
2022/04/21 06:00:30;;;;;;;1.23;1.00;;;10.90;99.90;;;;;;5230290;28;20021;-77
2022/04/21 06:03:01;;;;;;;1.25;1.05;;;10.90;99.90;;;;;;5233175;28;20035;-76
2022/04/21 06:05:32;;;;;;;1.02;0.93;;;11.00;99.90;;;;;;5245830;28;20049;-75
2022/04/21 06:08:05;;;;;;;1.55;1.38;;;11.40;99.90;;;;;;5246024;28;20097;-73
2022/04/21 06:10:37;;;;;;;2.03;1.48;;;11.40;99.90;;;;;;5246539;28;20036;-73
2022/04/21 06:13:08;;;;;;;1.63;1.30;;;11.40;99.90;;;;;;5246519;28;20040;-74
2022/04/21 06:15:38;;;;;;;1.48;1.13;;;11.60;99.90;;;;;;5244174;28;20369;-74
2022/04/21 06:18:10;;;;;;;2.47;1.30;;;11.70;99.90;;;;;;5244487;28;20039;-74
2022/04/21 06:20:40;;;;;;;1.13;1.02;;;11.90;99.90;;;;;;5243354;28;20769;-73
2022/04/21 06:23:11;;;;;;;1.95;1.30;;;11.80;99.90;;;;;;5244231;28;20040;-73
2022/04/21 06:25:43;;;;;;;1.60;1.25;;;12.00;99.90;;;;;;5245863;28;20044;-74
2022/04/21 06:28:15;;;;;;;1.48;1.15;;;12.20;99.90;;;;;;5245957;28;20029;-74
2022/04/21 06:30:46;;;;;;;1.50;1.27;;;11.50;99.90;;;;;;5245808;28;20028;-74
2022/04/21 06:33:18;;;;;;;1.40;1.17;;;11.90;99.90;;;;;;5245781;28;20047;-74
2022/04/21 06:35:49;;;;;;;1.40;1.20;;;12.30;99.90;;;;;;5246043;28;20032;-75
2022/04/21 06:38:20;;;;;;;1.63;1.30;;;12.10;99.90;;;;;;5245605;28;20742;-75
2022/04/21 06:40:50;;;;;;;1.40;1.30;;;12.10;99.90;;;;;;5246198;28;20020;-75
2022/04/21 06:48:59;;;;;;;3.47;1.38;;;12.40;99.90;;;;;;5242703;28;20024;-73
2022/04/21 06:51:30;;;;;;;2.40;1.48;;;12.80;99.90;;;;;;5243513;28;20028;-76
2022/04/21 06:54:01;;;;;;;1.85;1.60;;;12.60;99.90;;;;;;5243649;28;20100;-77
2022/04/21 06:56:32;;;;;;;1.92;1.20;;;13.00;99.90;;;;;;5245576;28;20383;-76
2022/04/21 06:59:03;;;;;;;2.92;1.58;;;13.00;99.90;;;;;;5244698;28;20444;-75
2022/04/21 07:01:35;;;;;;;1.88;1.38;;;12.80;99.90;;;;;;5244866;28;20043;-77
2022/04/21 07:04:05;;;;;;;1.50;1.40;;;13.00;99.90;;;;;;5243979;28;20107;-77
2022/04/21 07:06:36;;;;;;;1.40;1.17;;;12.50;99.90;;;;;;5244373;28;20124;-77
2022/04/21 07:09:07;;;;;;;1.50;1.40;;;12.70;99.90;;;;;;5243256;28;20122;-75
2022/04/21 07:11:38;;;;;;;1.50;1.10;;;13.30;99.90;;;;;;5245236;28;20040;-78
2022/04/21 07:14:10;;;;;;;1.60;1.50;;;13.40;99.90;;;;;;5245140;28;20040;-79
2022/04/21 07:16:40;;;;;;;1.20;1.10;;;13.50;99.90;;;;;;5243633;28;20040;-78
2022/04/21 07:19:11;;;;;;;2.00;1.30;;;13.50;99.90;;;;;;5245232;28;20473;-75
2022/04/21 07:21:42;;;;;;;1.48;1.25;;;13.20;99.90;;;;;;5243068;28;20166;-73
2022/04/21 07:24:13;;;;;;;1.80;1.42;;;13.60;99.90;;;;;;5244418;28;20043;-73
2022/04/21 07:26:43;;;;;;;2.30;1.58;;;13.80;99.90;;;;;;5243518;28;20238;-74
2022/04/21 07:29:14;;;;;;;3.30;1.90;;;13.40;99.90;;;;;;5243737;28;20048;-75
2022/04/21 07:31:45;;;;;;;2.20;1.58;;;13.30;99.90;;;;;;5244599;28;20036;-77
2022/04/21 07:34:16;;;;;;;1.88;1.60;;;13.60;99.90;;;;;;5245219;28;20040;-78
2022/04/21 07:36:47;;;;;;;1.55;1.40;;;13.70;99.90;;;;;;5243940;28;20024;-77
2022/04/21 07:39:18;;;;;;;4.13;1.50;;;13.40;99.90;;;;;;5245044;28;20029;-77
2022/04/21 07:41:50;;;;;;;1.55;1.45;;;14.00;99.90;;;;;;5244817;28;20135;-77
2022/04/21 07:44:21;;;;;;;1.83;1.30;;;13.90;99.90;;;;;;5242275;28;20127;-76
2022/04/21 07:46:52;;;;;;;1.80;1.50;;;14.10;99.90;;;;;;5243426;28;20028;-76
2022/04/21 07:55:14;;;;;;;1.85;1.65;;;14.00;99.90;;;;;;5244482;28;20028;-77
2022/04/21 07:57:47;;;;;;;2.40;1.48;;;13.90;99.90;;;;;;5244723;28;20032;-77
2022/04/21 08:00:18;;;;;;;3.33;1.42;;;14.30;99.90;;;;;;5244836;28;20032;-77
2022/04/21 08:02:49;;;;;;;3.38;1.70;;;14.80;99.90;;;;;;5242719;28;20040;-77
2022/04/21 08:05:22;;;;;;;2.35;1.50;;;14.60;99.90;;;;;;5244506;28;20049;-77
2022/04/21 08:07:53;;;;;;;2.50;1.23;;;14.50;99.90;;;;;;5242889;28;20116;-74
2022/04/21 08:10:28;;;;;;;3.63;1.95;;;14.50;99.90;;;;;;5243381;28;20049;-76
2022/04/21 08:12:59;;;;;;;3.15;1.83;;;14.40;99.90;;;;;;5244319;28;20341;-76
2022/04/21 08:15:35;;;;;;;1.73;1.60;;;14.70;99.90;;;;;;5243306;28;20077;-76
2022/04/21 08:18:10;;;;;;;2.30;1.70;;;15.00;99.90;;;;;;5242482;28;20035;-74
2022/04/21 08:20:41;;;;;;;2.38;2.17;;;15.30;99.90;;;;;;5244280;28;21212;-73
2022/04/21 08:23:11;;;;;;;2.25;1.85;;;15.70;99.90;;;;;;5244309;28;20104;-74
2022/04/21 08:34:11;;;;;;;2.00;1.80;;;15.70;99.90;;;;;;5244590;28;20042;-76
2022/04/21 08:36:42;;;;;;;3.00;1.92;;;15.10;99.90;;;;;;5243637;28;20028;-76
2022/04/21 08:39:13;;;;;;;2.38;1.92;;;14.60;99.90;;;;;;5242764;28;20142;-76
2022/04/21 08:41:47;;;;;;;4.38;1.88;;;14.60;99.90;;;;;;5243112;28;20028;-77
2022/04/21 08:44:21;;;;;;;2.47;1.80;;;14.90;99.90;;;;;;5241548;28;20066;-77
2022/04/21 08:46:53;;;;;;;3.22;1.90;;;15.00;99.90;;;;;;5243354;28;20503;-76
2022/04/21 08:49:25;;;;;;;4.10;1.80;;;14.60;99.90;;;;;;5241969;28;20431;-75
2022/04/21 08:52:00;;;;;;;2.42;1.73;;;14.70;99.90;;;;;;5243422;28;20464;-75
2022/04/21 08:54:31;;;;;;;3.95;1.80;;;14.70;99.90;;;;;;5243371;28;20052;-73
2022/04/21 08:57:02;;;;;;;2.40;1.90;;;13.90;99.90;;;;;;5243713;28;20032;-73
2022/04/21 08:59:33;;;;;;;2.28;1.70;;;14.20;99.90;;;;;;5243452;28;20478;-73
2022/04/21 09:02:04;;;;;;;2.55;2.05;;;14.40;99.90;;;;;;5245281;28;20020;-74
2022/04/21 09:04:35;;;;;;;2.33;1.65;;;14.80;99.90;;;;;;5241732;28;20025;-76
2022/04/21 09:07:21;;;;;;;2.13;1.83;;;14.10;99.90;;;;;;5243722;28;20040;-73
2022/04/21 09:10:12;;;;;;;5.13;2.38;;;14.10;99.90;;;;;;5242881;28;20024;-74
2022/04/21 09:12:50;;;;;;;2.55;1.75;;;14.50;99.90;;;;;;5242479;28;20048;-76
2022/04/21 09:15:27;;;;;;;2.30;2.00;;;15.00;99.90;;;;;;5242304;28;20487;-75
2022/04/21 09:18:00;;;;;;;1.65;1.55;;;14.90;99.90;;;;;;5243057;28;20021;-75
2022/04/21 09:20:33;;;;;;;2.15;1.70;;;14.70;99.90;;;;;;5242947;28;20032;-74
2022/04/21 09:23:11;;;;;;;2.78;1.58;;;14.80;99.90;;;;;;5241906;28;20004;-74
2022/04/21 09:25:51;;;;;;;2.10;1.63;;;14.60;99.90;;;;;;5242843;28;20130;-75
2022/04/21 09:28:29;;;;;;;2.20;2.00;;;15.00;99.90;;;;;;5243426;28;20047;-76
2022/04/21 09:31:01;;;;;;;5.85;2.20;;;15.50;99.90;;;;;;5243617;28;20055;-76
2022/04/21 09:33:36;;;;;;;2.53;2.00;;;15.00;99.90;;;;;;5245254;28;20017;-76
2022/04/21 09:36:09;;;;;;;3.83;2.00;;;14.80;99.90;;;;;;5243696;28;20085;-76
2022/04/21 09:38:40;;;;;;;3.65;2.10;;;15.10;99.90;;;;;;5243438;28;20028;-76
2022/04/21 09:41:13;;;;;;;2.50;1.75;;;15.10;99.90;;;;;;5243561;28;20033;-74
2022/04/21 09:43:44;;;;;;;2.13;1.83;;;15.10;99.90;;;;;;5243119;28;20104;-74
2022/04/21 09:46:20;;;;;;;4.55;1.73;;;14.90;99.90;;;;;;5243576;28;20143;-74
2022/04/21 09:48:55;;;;;;;2.78;1.77;;;15.00;99.90;;;;;;5242641;28;20523;-74
2022/04/21 09:51:28;;;;;;;3.45;1.80;;;15.00;99.90;;;;;;5241684;28;20032;-74
2022/04/21 09:54:04;;;;;;;2.95;1.92;;;15.00;99.90;;;;;;5243181;28;20024;-76
2022/04/21 09:56:35;;;;;;;2.47;1.90;;;14.90;99.90;;;;;;5244737;28;20029;-74
2022/04/21 09:59:09;;;;;;;4.55;1.80;;;15.10;99.90;;;;;;5246640;28;20103;-77
2022/04/21 10:01:42;;;;;;;8.18;4.97;;;14.90;99.90;;;;;;5244139;28;20034;-75
2022/04/21 10:04:13;;;;;;;3.85;2.45;;;14.40;99.90;;;;;;5246068;28;20159;-74
2022/04/21 10:06:47;;;;;;;2.78;2.20;;;14.60;99.90;;;;;;5223074;28;20143;-75
2022/04/21 10:09:17;;;;;;;2.83;1.80;;;14.70;99.90;;;;;;5250005;28;20040;-75
2022/04/21 10:11:51;;;;;;;2.28;2.08;;;15.20;99.90;;;;;;5249604;28;20468;-77
2022/04/21 10:14:22;;;;;;;1.75;1.48;;;15.00;99.90;;;;;;5249998;28;20086;-76
2022/04/21 10:16:53;;;;;;;2.22;2.00;;;15.00;99.90;;;;;;5248932;28;20495;-74
2022/04/21 10:19:25;;;;;;;2.25;1.77;;;15.10;99.90;;;;;;5245105;28;20062;-77
2022/04/21 10:22:00;;;;;;;2.83;2.17;;;15.50;99.90;;;;;;5244660;28;20550;-77
2022/04/21 10:24:34;;;;;;;5.82;3.95;;;15.30;99.90;;;;;;5244879;28;20119;-77
2022/04/21 10:27:25;;;;;;;7.22;4.50;;;15.10;99.90;;;;;;5245089;28;20020;-72
2022/04/21 10:29:57;;;;;;;4.50;3.53;;;15.40;99.90;;;;;;5244644;28;20024;-76
2022/04/21 10:32:47;;;;;;;3.78;2.70;;;15.30;99.90;;;;;;5244561;28;20052;-74
2022/04/21 10:35:24;;;;;;;;;;;15.20;99.90;;;;;;5243433;28;20058;-77
2022/04/21 10:38:13;;;;;;;3.60;2.38;;;15.10;99.90;;;;;;5244022;28;19912;-76
2022/04/21 10:41:03;;;;;;;4.18;2.75;;;15.30;99.90;;;;;;5243724;28;20041;-77
2022/04/21 10:44:01;;;;;;;2.88;2.20;;;15.90;99.90;;;;;;5241992;28;20020;-73
2022/04/21 10:46:32;;;;;;;3.25;2.40;;;16.10;99.90;;;;;;5240093;28;20496;-73
2022/04/21 10:49:03;;;;;;;2.67;2.10;;;16.00;99.90;;;;;;5242501;28;20044;-78
2022/04/21 10:57:33;;;;;;;5.22;3.55;;;16.50;99.90;;;;;;5245441;28;20099;-79
2022/04/21 11:00:09;;;;;;;5.18;2.63;;;16.30;99.90;;;;;;5245486;28;20025;-74
2022/04/21 11:02:47;;;;;;;4.28;3.42;;;17.40;99.90;;;;;;5245220;28;20103;-77
2022/04/21 11:05:23;;;;;;;6.63;3.05;;;16.80;99.90;;;;;;5245091;28;20353;-73
2022/04/21 11:07:57;;;;;;;7.20;3.40;;;17.10;99.90;;;;;;5244516;28;20039;-76
2022/04/21 11:10:48;;;;;;;4.85;2.92;;;16.40;99.90;;;;;;5245772;28;20039;-73
2022/04/21 11:13:20;;;;;;;5.05;3.40;;;16.80;99.90;;;;;;5245276;28;20062;-73
2022/04/21 11:15:53;;;;;;;5.45;3.35;;;16.60;99.90;;;;;;5244773;28;20502;-74
2022/04/21 11:18:31;;;;;;;8.57;3.28;;;16.60;99.90;;;;;;5245187;28;20039;-74
2022/04/21 11:21:22;;;;;;;4.30;3.00;;;16.30;99.90;;;;;;5242639;28;20380;-72
2022/04/21 11:23:53;;;;;;;5.72;2.83;;;16.60;99.90;;;;;;5244600;28;20488;-73
2022/04/21 11:26:30;;;;;;;4.28;3.13;;;17.10;99.90;;;;;;5245259;28;20035;-73
2022/04/21 11:29:03;;;;;;;3.35;2.60;;;15.90;99.90;;;;;;5244628;28;20039;-72
2022/04/21 11:31:34;;;;;;;3.70;2.78;;;17.20;99.90;;;;;;5243718;28;20361;-72
2022/04/21 11:34:05;;;;;;;3.13;2.80;;;17.90;99.90;;;;;;5245237;28;20017;-76
2022/04/21 11:36:40;;;;;;;4.15;2.45;;;17.20;99.90;;;;;;5244012;28;20051;-72
2022/04/21 11:39:13;;;;;;;3.55;2.10;;;17.40;99.90;;;;;;5243434;28;20036;-74
2022/04/21 11:41:46;;;;;;;5.05;2.40;;;17.50;99.90;;;;;;5244773;28;20032;-72
2022/04/21 11:44:23;;;;;;;7.45;3.00;;;17.20;99.90;;;;;;5244863;28;20032;-72
2022/04/21 11:46:54;;;;;;;5.10;2.53;;;16.50;99.90;;;;;;5241097;28;20380;-77
2022/04/21 11:49:25;;;;;;;4.47;2.30;;;16.60;99.90;;;;;;5241164;28;20040;-76
2022/04/21 11:51:56;;;;;;;3.92;2.55;;;16.60;99.90;;;;;;5242507;28;20008;-73
2022/04/21 11:54:27;;;;;;;3.88;3.13;;;16.50;99.90;;;;;;5248210;28;20502;-79
2022/04/21 11:57:00;;;;;;;5.65;2.90;;;15.70;99.90;;;;;;5233592;28;20028;-76
2022/04/21 11:59:36;;;;;;;3.60;2.63;;;16.50;99.90;;;;;;5229046;28;20114;-75
2022/04/21 12:08:07;;;;;;;4.53;2.50;;;17.00;99.90;;;;;;5201709;28;20021;-73
2022/04/21 12:10:39;;;;;;;3.58;2.42;;;17.00;99.90;;;;;;5206375;28;20085;-72
2022/04/21 12:13:10;;;;;;;3.20;2.20;;;16.50;99.90;;;;;;5223044;28;20380;-74
2022/04/21 12:15:41;;;;;;;3.03;2.30;;;16.60;99.90;;;;;;5240262;28;20040;-73
2022/04/21 12:18:11;;;;;;;4.07;2.90;;;17.00;99.90;;;;;;5239644;28;20536;-73
2022/04/21 12:20:55;;;;;;;3.20;2.30;;;16.70;99.90;;;;;;5239960;28;20020;-75
2022/04/21 12:23:27;;;;;;;4.07;2.28;;;17.00;99.90;;;;;;5238366;28;20024;-75
2022/04/21 12:25:58;;;;;;;3.85;2.80;;;16.80;99.90;;;;;;5240125;28;20016;-72
2022/04/21 12:28:29;;;;;;;3.05;2.17;;;17.10;99.90;;;;;;5243262;28;20511;-73
2022/04/21 12:31:10;;;;;;;3.13;2.30;;;17.00;99.90;;;;;;5244161;28;20036;-74
2022/04/21 12:33:42;;;;;;;3.42;2.30;;;17.40;99.90;;;;;;5243262;28;20106;-71
2022/04/21 12:36:15;;;;;;;2.58;2.20;;;16.50;99.90;;;;;;5243900;28;20543;-75
2022/04/21 12:38:56;;;;;;;5.40;2.60;;;17.00;99.90;;;;;;5244209;28;20044;-73
2022/04/21 12:41:28;;;;;;;2.60;1.98;;;16.50;99.90;;;;;;5239735;28;20391;-76
2022/04/21 12:44:00;;;;;;;3.20;2.47;;;16.40;99.90;;;;;;5241131;28;20089;-75
2022/04/21 12:46:33;;;;;;;5.25;2.45;;;16.50;99.90;;;;;;5241727;28;20096;-72
2022/04/21 12:49:03;;;;;;;4.40;2.65;;;17.80;99.90;;;;;;5243002;28;20099;-75
2022/04/21 12:51:35;;;;;;;7.65;2.08;;;17.70;99.90;;;;;;5243665;28;20032;-73
2022/04/21 12:54:06;;;;;;;3.38;2.35;;;17.10;99.20;;;;;;5241975;28;20092;-75
2022/04/21 12:56:39;;;;;;;2.33;2.13;;;17.40;95.90;;;;;;5242704;28;20108;-76
2022/04/21 12:59:10;;;;;;;3.42;2.28;;;17.30;95.20;;;;;;5243114;28;20070;-72
2022/04/21 13:01:40;;;;;;;3.65;2.28;;;17.30;94.90;;;;;;5242469;28;20436;-73
2022/04/21 13:04:11;;;;;;;3.85;2.40;;;16.90;94.70;;;;;;5243501;28;20032;-72
2022/04/21 13:06:43;;;;;;;3.65;2.40;;;16.70;95.30;;;;;;5241746;28;20063;-75
2022/04/21 13:09:14;;;;;;;4.38;2.17;;;16.70;92.50;;;;;;5242868;28;20044;-75
2022/04/21 13:11:45;;;;;;;5.63;3.35;;;17.00;92.70;;;;;;5243876;28;20032;-72
2022/04/21 13:14:16;;;;;;;3.60;2.58;;;17.00;94.70;;;;;;5242567;28;20040;-73
2022/04/21 13:16:47;;;;;;;6.18;2.40;;;17.20;94.40;;;;;;5242087;28;20032;-72
2022/04/21 13:19:18;;;;;;;3.08;2.25;;;17.50;92.70;;;;;;5241526;28;20091;-72
2022/04/21 13:21:52;;;;;;;3.40;2.53;;;18.00;91.20;;;;;;5243962;28;20411;-72
2022/04/21 13:24:24;;;;;;;3.72;2.38;;;18.10;89.50;;;;;;5241206;28;20115;-72
2022/04/21 13:26:57;;;;;;;5.05;3.10;;;17.80;93.30;;;;;;5241924;28;20389;-72
2022/04/21 13:29:29;;;;;;;5.07;2.20;;;17.80;91.50;;;;;;5243677;28;20040;-74
2022/04/21 13:34:49;;;;;;;5.97;2.70;;;18.90;93.10;;;;;;5246390;28;20410;-72
2022/04/21 13:37:20;;;;;;;5.25;2.50;;;18.50;90.40;;;;;;5247116;28;20033;-72
2022/04/21 13:39:51;;;;;;;5.03;2.65;;;18.00;82.40;;;;;;5247476;28;20053;-71
2022/04/21 13:42:22;;;;;;;4.38;2.75;;;18.40;85.60;;;;;;5243940;28;21037;-71
2022/04/21 13:44:53;;;;;;;5.50;2.60;;;17.70;87.30;;;;;;5247226;28;20021;-74
2022/04/21 13:47:24;;;;;;;5.10;3.08;;;18.10;91.30;;;;;;5245668;28;20032;-72
2022/04/21 13:49:55;;;;;;;3.05;2.55;;;18.10;87.00;;;;;;5246609;28;20037;-72
2022/04/21 13:52:25;;;;;;;5.68;2.30;;;18.40;86.20;;;;;;5244893;28;20030;-70
2022/04/21 13:54:57;;;;;;;3.85;2.58;;;18.90;85.20;;;;;;5244955;28;20100;-71
2022/04/21 13:57:27;;;;;;;3.42;2.63;;;18.10;79.40;;;;;;5245861;28;20018;-74
2022/04/21 13:59:58;;;;;;;8.48;2.63;;;18.50;81.80;;;;;;5241485;28;20032;-71
2022/04/21 14:02:29;;;;;;;5.82;2.40;;;18.60;81.00;;;;;;5236769;28;20025;-71
2022/04/21 14:05:00;;;;;;;2.50;2.00;;;19.80;82.20;;;;;;5229837;28;20049;-71
2022/04/21 14:07:31;;;;;;;3.78;2.25;;;18.50;81.30;;;;;;5229993;28;20064;-71
2022/04/21 14:10:02;;;;;;;4.57;2.22;;;17.50;86.20;;;;;;5230162;28;20421;-71
2022/04/21 14:12:32;;;;;;;5.50;2.92;;;17.70;86.10;;;;;;5230056;28;20103;-70
2022/04/21 14:15:04;;;;;;;3.58;2.28;;;17.70;83.00;;;;;;5229775;28;20087;-71